sensor_id;sensor_type;location;lat;lon;timestamp;P1;durP1;ratioP1;P2;durP2;ratioP2
40573;SDS011;26283;49.020;8.644;2022-08-19T00:02:24;18.02;;;16.42;;
40573;SDS011;26283;49.020;8.644;2022-08-19T00:04:50;18.58;;;16.87;;
40573;SDS011;26283;49.020;8.644;2022-08-19T00:07:18;18.73;;;17.02;;
40573;SDS011;26283;49.020;8.644;2022-08-19T00:09:44;17.83;;;16.17;;
40573;SDS011;26283;49.020;8.644;2022-08-19T00:12:10;18.08;;;16.45;;
40573;SDS011;26283;49.020;8.644;2022-08-19T00:14:36;18.65;;;16.87;;
40573;SDS011;26283;49.020;8.644;2022-08-19T00:17:03;18.27;;;16.58;;
40573;SDS011;26283;49.020;8.644;2022-08-19T00:19:32;19.15;;;17.35;;
40573;SDS011;26283;49.020;8.644;2022-08-19T00:21:58;19.62;;;17.73;;
40573;SDS011;26283;49.020;8.644;2022-08-19T00:24:23;19.27;;;17.58;;
40573;SDS011;26283;49.020;8.644;2022-08-19T00:26:49;18.58;;;16.85;;
40573;SDS011;26283;49.020;8.644;2022-08-19T00:29:17;18.87;;;16.95;;
40573;SDS011;26283;49.020;8.644;2022-08-19T00:31:44;20.15;;;18.33;;
40573;SDS011;26283;49.020;8.644;2022-08-19T00:34:11;18.42;;;16.73;;
40573;SDS011;26283;49.020;8.644;2022-08-19T00:36:38;19.95;;;18.05;;
40573;SDS011;26283;49.020;8.644;2022-08-19T00:39:04;20.30;;;18.33;;
40573;SDS011;26283;49.020;8.644;2022-08-19T00:41:29;19.75;;;17.95;;
40573;SDS011;26283;49.020;8.644;2022-08-19T00:46:23;20.17;;;18.25;;
40573;SDS011;26283;49.020;8.644;2022-08-19T00:48:49;20.80;;;18.90;;
40573;SDS011;26283;49.020;8.644;2022-08-19T00:51:14;19.90;;;18.12;;
40573;SDS011;26283;49.020;8.644;2022-08-19T00:53:39;20.20;;;18.20;;
40573;SDS011;26283;49.020;8.644;2022-08-19T00:56:05;19.92;;;18.23;;
40573;SDS011;26283;49.020;8.644;2022-08-19T00:58:32;20.08;;;18.05;;
40573;SDS011;26283;49.020;8.644;2022-08-19T01:01:00;19.83;;;18.05;;
40573;SDS011;26283;49.020;8.644;2022-08-19T01:03:26;20.75;;;18.83;;
40573;SDS011;26283;49.020;8.644;2022-08-19T01:05:52;20.33;;;18.25;;
40573;SDS011;26283;49.020;8.644;2022-08-19T01:08:19;21.60;;;19.67;;
40573;SDS011;26283;49.020;8.644;2022-08-19T01:10:49;21.35;;;19.25;;
40573;SDS011;26283;49.020;8.644;2022-08-19T01:13:22;19.65;;;17.75;;
40573;SDS011;26283;49.020;8.644;2022-08-19T01:15:52;20.08;;;18.17;;
40573;SDS011;26283;49.020;8.644;2022-08-19T01:18:21;20.77;;;18.83;;
40573;SDS011;26283;49.020;8.644;2022-08-19T01:20:47;21.77;;;19.77;;
40573;SDS011;26283;49.020;8.644;2022-08-19T01:23:13;21.35;;;19.10;;
40573;SDS011;26283;49.020;8.644;2022-08-19T01:25:44;21.25;;;19.35;;
40573;SDS011;26283;49.020;8.644;2022-08-19T01:28:18;20.10;;;18.20;;
40573;SDS011;26283;49.020;8.644;2022-08-19T01:30:45;19.70;;;17.90;;
40573;SDS011;26283;49.020;8.644;2022-08-19T01:33:11;19.33;;;17.52;;
40573;SDS011;26283;49.020;8.644;2022-08-19T01:35:37;19.27;;;17.55;;
40573;SDS011;26283;49.020;8.644;2022-08-19T01:38:05;19.80;;;17.80;;
40573;SDS011;26283;49.020;8.644;2022-08-19T01:40:33;19.80;;;17.95;;
40573;SDS011;26283;49.020;8.644;2022-08-19T01:43:01;20.50;;;18.70;;
40573;SDS011;26283;49.020;8.644;2022-08-19T01:45:28;21.48;;;19.37;;
40573;SDS011;26283;49.020;8.644;2022-08-19T01:47:56;22.13;;;20.17;;
40573;SDS011;26283;49.020;8.644;2022-08-19T01:50:23;21.15;;;19.37;;
40573;SDS011;26283;49.020;8.644;2022-08-19T01:52:49;21.35;;;19.45;;
40573;SDS011;26283;49.020;8.644;2022-08-19T01:55:16;22.80;;;20.50;;
40573;SDS011;26283;49.020;8.644;2022-08-19T01:57:46;22.13;;;20.02;;
40573;SDS011;26283;49.020;8.644;2022-08-19T02:00:15;21.45;;;19.60;;
40573;SDS011;26283;49.020;8.644;2022-08-19T02:02:42;20.77;;;18.98;;
40573;SDS011;26283;49.020;8.644;2022-08-19T02:05:08;21.02;;;18.92;;
40573;SDS011;26283;49.020;8.644;2022-08-19T02:07:35;22.23;;;20.02;;
40573;SDS011;26283;49.020;8.644;2022-08-19T02:10:05;22.60;;;20.52;;
40573;SDS011;26283;49.020;8.644;2022-08-19T02:12:35;23.38;;;21.23;;
40573;SDS011;26283;49.020;8.644;2022-08-19T02:15:01;22.55;;;20.52;;
40573;SDS011;26283;49.020;8.644;2022-08-19T02:17:28;22.83;;;20.65;;
40573;SDS011;26283;49.020;8.644;2022-08-19T02:19:57;23.55;;;21.45;;
40573;SDS011;26283;49.020;8.644;2022-08-19T02:22:24;23.30;;;21.20;;
40573;SDS011;26283;49.020;8.644;2022-08-19T02:24:50;21.17;;;19.35;;
40573;SDS011;26283;49.020;8.644;2022-08-19T02:27:19;21.30;;;19.30;;
40573;SDS011;26283;49.020;8.644;2022-08-19T02:29:45;21.90;;;20.00;;
40573;SDS011;26283;49.020;8.644;2022-08-19T02:32:11;21.75;;;19.80;;
40573;SDS011;26283;49.020;8.644;2022-08-19T02:34:37;22.65;;;20.67;;
40573;SDS011;26283;49.020;8.644;2022-08-19T02:37:02;22.62;;;20.67;;
40573;SDS011;26283;49.020;8.644;2022-08-19T02:39:28;21.00;;;19.10;;
40573;SDS011;26283;49.020;8.644;2022-08-19T02:41:53;22.55;;;20.55;;
40573;SDS011;26283;49.020;8.644;2022-08-19T02:44:18;21.55;;;19.62;;
40573;SDS011;26283;49.020;8.644;2022-08-19T02:46:45;23.45;;;21.45;;
40573;SDS011;26283;49.020;8.644;2022-08-19T02:49:12;23.23;;;21.05;;
40573;SDS011;26283;49.020;8.644;2022-08-19T02:51:39;23.08;;;21.08;;
40573;SDS011;26283;49.020;8.644;2022-08-19T02:54:06;22.08;;;20.12;;
40573;SDS011;26283;49.020;8.644;2022-08-19T02:56:37;22.70;;;20.60;;
40573;SDS011;26283;49.020;8.644;2022-08-19T02:59:03;22.48;;;20.37;;
40573;SDS011;26283;49.020;8.644;2022-08-19T03:01:35;22.70;;;20.70;;
40573;SDS011;26283;49.020;8.644;2022-08-19T03:04:01;22.45;;;20.35;;
40573;SDS011;26283;49.020;8.644;2022-08-19T03:06:29;22.87;;;20.77;;
40573;SDS011;26283;49.020;8.644;2022-08-19T03:08:54;23.52;;;21.50;;
40573;SDS011;26283;49.020;8.644;2022-08-19T03:11:27;22.50;;;20.50;;
40573;SDS011;26283;49.020;8.644;2022-08-19T03:13:54;22.40;;;20.50;;
40573;SDS011;26283;49.020;8.644;2022-08-19T03:16:22;22.15;;;20.05;;
40573;SDS011;26283;49.020;8.644;2022-08-19T03:18:50;21.48;;;19.67;;
40573;SDS011;26283;49.020;8.644;2022-08-19T03:21:23;22.08;;;20.30;;
40573;SDS011;26283;49.020;8.644;2022-08-19T03:23:53;22.17;;;20.08;;
40573;SDS011;26283;49.020;8.644;2022-08-19T03:26:19;21.50;;;19.55;;
40573;SDS011;26283;49.020;8.644;2022-08-19T03:28:45;22.73;;;20.70;;
40573;SDS011;26283;49.020;8.644;2022-08-19T03:31:14;21.77;;;19.83;;
40573;SDS011;26283;49.020;8.644;2022-08-19T03:33:42;23.45;;;21.37;;
40573;SDS011;26283;49.020;8.644;2022-08-19T03:36:12;22.40;;;20.40;;
40573;SDS011;26283;49.020;8.644;2022-08-19T03:38:44;21.98;;;20.12;;
40573;SDS011;26283;49.020;8.644;2022-08-19T03:41:14;21.85;;;19.98;;
40573;SDS011;26283;49.020;8.644;2022-08-19T03:43:45;21.73;;;19.73;;
40573;SDS011;26283;49.020;8.644;2022-08-19T03:46:15;22.70;;;20.58;;
40573;SDS011;26283;49.020;8.644;2022-08-19T03:48:45;22.65;;;20.70;;
40573;SDS011;26283;49.020;8.644;2022-08-19T03:51:15;23.23;;;21.25;;
40573;SDS011;26283;49.020;8.644;2022-08-19T03:53:42;22.10;;;20.15;;
40573;SDS011;26283;49.020;8.644;2022-08-19T03:56:09;21.98;;;20.00;;
40573;SDS011;26283;49.020;8.644;2022-08-19T03:58:35;22.10;;;20.30;;
40573;SDS011;26283;49.020;8.644;2022-08-19T04:01:02;21.08;;;19.23;;
40573;SDS011;26283;49.020;8.644;2022-08-19T04:03:32;22.67;;;20.67;;
40573;SDS011;26283;49.020;8.644;2022-08-19T04:05:58;22.45;;;20.45;;
40573;SDS011;26283;49.020;8.644;2022-08-19T04:08:23;23.60;;;21.42;;
40573;SDS011;26283;49.020;8.644;2022-08-19T04:10:48;22.52;;;20.52;;
40573;SDS011;26283;49.020;8.644;2022-08-19T04:13:15;21.77;;;19.87;;
40573;SDS011;26283;49.020;8.644;2022-08-19T04:15:42;23.27;;;21.27;;
40573;SDS011;26283;49.020;8.644;2022-08-19T04:18:09;22.87;;;20.83;;
40573;SDS011;26283;49.020;8.644;2022-08-19T04:20:39;26.33;;;20.92;;
40573;SDS011;26283;49.020;8.644;2022-08-19T04:23:09;22.25;;;20.02;;
40573;SDS011;26283;49.020;8.644;2022-08-19T04:25:39;22.98;;;20.92;;
40573;SDS011;26283;49.020;8.644;2022-08-19T04:28:06;22.58;;;20.58;;
40573;SDS011;26283;49.020;8.644;2022-08-19T04:30:50;24.17;;;21.85;;
40573;SDS011;26283;49.020;8.644;2022-08-19T04:33:19;24.70;;;22.50;;
40573;SDS011;26283;49.020;8.644;2022-08-19T04:35:48;24.15;;;21.75;;
40573;SDS011;26283;49.020;8.644;2022-08-19T04:38:15;22.62;;;20.50;;
40573;SDS011;26283;49.020;8.644;2022-08-19T04:40:45;22.73;;;20.60;;
40573;SDS011;26283;49.020;8.644;2022-08-19T04:43:30;24.77;;;22.48;;
40573;SDS011;26283;49.020;8.644;2022-08-19T04:45:57;23.17;;;21.07;;
40573;SDS011;26283;49.020;8.644;2022-08-19T04:48:23;23.20;;;21.27;;
40573;SDS011;26283;49.020;8.644;2022-08-19T04:50:54;22.35;;;20.48;;
40573;SDS011;26283;49.020;8.644;2022-08-19T04:53:25;23.58;;;21.37;;
40573;SDS011;26283;49.020;8.644;2022-08-19T04:55:54;23.53;;;21.13;;
40573;SDS011;26283;49.020;8.644;2022-08-19T04:58:26;24.25;;;22.15;;
40573;SDS011;26283;49.020;8.644;2022-08-19T05:00:52;22.65;;;20.45;;
40573;SDS011;26283;49.020;8.644;2022-08-19T05:03:18;22.77;;;20.80;;
40573;SDS011;26283;49.020;8.644;2022-08-19T05:05:45;23.17;;;21.08;;
40573;SDS011;26283;49.020;8.644;2022-08-19T05:08:13;22.25;;;20.40;;
40573;SDS011;26283;49.020;8.644;2022-08-19T05:10:44;22.30;;;20.37;;
40573;SDS011;26283;49.020;8.644;2022-08-19T05:13:10;23.67;;;21.27;;
40573;SDS011;26283;49.020;8.644;2022-08-19T05:15:36;21.70;;;19.90;;
40573;SDS011;26283;49.020;8.644;2022-08-19T05:18:01;21.75;;;19.65;;
40573;SDS011;26283;49.020;8.644;2022-08-19T05:20:45;21.42;;;19.40;;
40573;SDS011;26283;49.020;8.644;2022-08-19T05:23:29;21.80;;;19.70;;
40573;SDS011;26283;49.020;8.644;2022-08-19T05:25:55;22.83;;;20.77;;
40573;SDS011;26283;49.020;8.644;2022-08-19T05:28:20;22.58;;;20.67;;
40573;SDS011;26283;49.020;8.644;2022-08-19T05:30:46;21.70;;;19.80;;
40573;SDS011;26283;49.020;8.644;2022-08-19T05:33:13;23.02;;;20.85;;
40573;SDS011;26283;49.020;8.644;2022-08-19T05:35:38;21.33;;;19.30;;
40573;SDS011;26283;49.020;8.644;2022-08-19T05:38:06;22.15;;;20.10;;
40573;SDS011;26283;49.020;8.644;2022-08-19T05:40:36;22.75;;;20.75;;
40573;SDS011;26283;49.020;8.644;2022-08-19T05:43:04;21.75;;;19.75;;
40573;SDS011;26283;49.020;8.644;2022-08-19T05:45:31;22.85;;;20.90;;
40573;SDS011;26283;49.020;8.644;2022-08-19T05:47:56;23.10;;;21.08;;
40573;SDS011;26283;49.020;8.644;2022-08-19T05:50:23;21.70;;;19.80;;
40573;SDS011;26283;49.020;8.644;2022-08-19T05:52:50;22.02;;;19.83;;
40573;SDS011;26283;49.020;8.644;2022-08-19T05:55:16;21.67;;;19.77;;
40573;SDS011;26283;49.020;8.644;2022-08-19T05:57:41;22.48;;;20.48;;
40573;SDS011;26283;49.020;8.644;2022-08-19T06:00:07;22.17;;;20.23;;
40573;SDS011;26283;49.020;8.644;2022-08-19T06:02:35;21.90;;;19.80;;
40573;SDS011;26283;49.020;8.644;2022-08-19T06:05:02;21.20;;;19.40;;
40573;SDS011;26283;49.020;8.644;2022-08-19T06:07:28;20.83;;;19.12;;
40573;SDS011;26283;49.020;8.644;2022-08-19T06:09:54;20.67;;;18.87;;
40573;SDS011;26283;49.020;8.644;2022-08-19T06:12:20;21.15;;;19.25;;
40573;SDS011;26283;49.020;8.644;2022-08-19T06:14:51;22.05;;;20.02;;
40573;SDS011;26283;49.020;8.644;2022-08-19T06:17:19;19.92;;;18.10;;
40573;SDS011;26283;49.020;8.644;2022-08-19T06:19:44;20.48;;;18.67;;
40573;SDS011;26283;49.020;8.644;2022-08-19T06:22:10;20.75;;;18.85;;
40573;SDS011;26283;49.020;8.644;2022-08-19T06:24:36;20.48;;;18.58;;
40573;SDS011;26283;49.020;8.644;2022-08-19T06:27:02;20.90;;;19.23;;
40573;SDS011;26283;49.020;8.644;2022-08-19T06:29:30;20.50;;;18.80;;
40573;SDS011;26283;49.020;8.644;2022-08-19T06:31:58;20.33;;;18.37;;
40573;SDS011;26283;49.020;8.644;2022-08-19T06:34:27;20.25;;;18.20;;
40573;SDS011;26283;49.020;8.644;2022-08-19T06:36:54;20.50;;;18.70;;
40573;SDS011;26283;49.020;8.644;2022-08-19T06:39:22;19.83;;;18.12;;
40573;SDS011;26283;49.020;8.644;2022-08-19T06:41:50;21.15;;;19.35;;
40573;SDS011;26283;49.020;8.644;2022-08-19T06:44:19;19.60;;;17.70;;
40573;SDS011;26283;49.020;8.644;2022-08-19T06:46:46;20.07;;;18.17;;
40573;SDS011;26283;49.020;8.644;2022-08-19T06:49:13;20.90;;;19.10;;
40573;SDS011;26283;49.020;8.644;2022-08-19T06:51:40;20.92;;;19.02;;
40573;SDS011;26283;49.020;8.644;2022-08-19T06:54:10;20.52;;;18.80;;
40573;SDS011;26283;49.020;8.644;2022-08-19T06:56:35;20.65;;;18.75;;
40573;SDS011;26283;49.020;8.644;2022-08-19T06:59:06;18.92;;;17.30;;
40573;SDS011;26283;49.020;8.644;2022-08-19T07:01:35;19.60;;;17.80;;
40573;SDS011;26283;49.020;8.644;2022-08-19T07:04:02;18.30;;;16.85;;
40573;SDS011;26283;49.020;8.644;2022-08-19T07:06:29;20.60;;;18.77;;
40573;SDS011;26283;49.020;8.644;2022-08-19T07:08:56;19.65;;;17.65;;
40573;SDS011;26283;49.020;8.644;2022-08-19T07:11:23;20.15;;;18.52;;
40573;SDS011;26283;49.020;8.644;2022-08-19T07:13:48;20.43;;;18.70;;
40573;SDS011;26283;49.020;8.644;2022-08-19T07:16:15;18.50;;;16.67;;
40573;SDS011;26283;49.020;8.644;2022-08-19T07:18:42;19.53;;;17.90;;
40573;SDS011;26283;49.020;8.644;2022-08-19T07:21:19;19.75;;;17.90;;
40573;SDS011;26283;49.020;8.644;2022-08-19T07:23:49;18.77;;;17.20;;
40573;SDS011;26283;49.020;8.644;2022-08-19T07:26:26;19.23;;;17.52;;
40573;SDS011;26283;49.020;8.644;2022-08-19T07:28:54;20.17;;;18.37;;
40573;SDS011;26283;49.020;8.644;2022-08-19T07:31:22;19.37;;;17.57;;
40573;SDS011;26283;49.020;8.644;2022-08-19T07:33:50;17.83;;;16.13;;
40573;SDS011;26283;49.020;8.644;2022-08-19T07:36:18;18.23;;;16.63;;
40573;SDS011;26283;49.020;8.644;2022-08-19T07:38:47;17.87;;;16.37;;
40573;SDS011;26283;49.020;8.644;2022-08-19T07:41:18;19.27;;;17.30;;
40573;SDS011;26283;49.020;8.644;2022-08-19T07:43:46;19.50;;;17.60;;
40573;SDS011;26283;49.020;8.644;2022-08-19T07:46:13;17.17;;;15.77;;
40573;SDS011;26283;49.020;8.644;2022-08-19T07:48:40;18.50;;;16.85;;
40573;SDS011;26283;49.020;8.644;2022-08-19T07:51:08;17.97;;;16.37;;
40573;SDS011;26283;49.020;8.644;2022-08-19T07:53:35;18.58;;;17.00;;
40573;SDS011;26283;49.020;8.644;2022-08-19T07:56:02;18.33;;;16.73;;
40573;SDS011;26283;49.020;8.644;2022-08-19T07:58:33;16.63;;;15.23;;
40573;SDS011;26283;49.020;8.644;2022-08-19T08:01:01;18.40;;;16.70;;
40573;SDS011;26283;49.020;8.644;2022-08-19T08:03:27;17.07;;;15.50;;
40573;SDS011;26283;49.020;8.644;2022-08-19T08:06:13;18.25;;;16.75;;
40573;SDS011;26283;49.020;8.644;2022-08-19T08:09:00;16.43;;;14.90;;
40573;SDS011;26283;49.020;8.644;2022-08-19T08:11:40;17.85;;;16.05;;
40573;SDS011;26283;49.020;8.644;2022-08-19T08:14:18;16.77;;;15.33;;
40573;SDS011;26283;49.020;8.644;2022-08-19T08:16:49;16.37;;;14.67;;
40573;SDS011;26283;49.020;8.644;2022-08-19T08:19:17;15.50;;;14.10;;
40573;SDS011;26283;49.020;8.644;2022-08-19T08:21:45;15.98;;;14.77;;
40573;SDS011;26283;49.020;8.644;2022-08-19T08:24:11;15.32;;;14.02;;
40573;SDS011;26283;49.020;8.644;2022-08-19T08:26:37;16.00;;;14.57;;
40573;SDS011;26283;49.020;8.644;2022-08-19T08:29:03;14.57;;;13.27;;
40573;SDS011;26283;49.020;8.644;2022-08-19T08:31:29;14.43;;;13.13;;
40573;SDS011;26283;49.020;8.644;2022-08-19T08:33:54;14.33;;;13.13;;
40573;SDS011;26283;49.020;8.644;2022-08-19T08:36:20;15.10;;;13.80;;
40573;SDS011;26283;49.020;8.644;2022-08-19T08:38:45;15.05;;;13.65;;
40573;SDS011;26283;49.020;8.644;2022-08-19T08:41:14;14.73;;;13.53;;
40573;SDS011;26283;49.020;8.644;2022-08-19T08:43:48;13.80;;;12.60;;
40573;SDS011;26283;49.020;8.644;2022-08-19T08:48:49;15.00;;;13.70;;
40573;SDS011;26283;49.020;8.644;2022-08-19T08:51:40;13.27;;;12.05;;
40573;SDS011;26283;49.020;8.644;2022-08-19T08:54:10;12.48;;;11.38;;
40573;SDS011;26283;49.020;8.644;2022-08-19T08:56:39;11.65;;;10.50;;
40573;SDS011;26283;49.020;8.644;2022-08-19T08:59:10;12.43;;;11.05;;
40573;SDS011;26283;49.020;8.644;2022-08-19T09:01:49;11.57;;;9.85;;
40573;SDS011;26283;49.020;8.644;2022-08-19T09:04:14;10.73;;;9.60;;
40573;SDS011;26283;49.020;8.644;2022-08-19T09:09:48;10.18;;;9.40;;
40573;SDS011;26283;49.020;8.644;2022-08-19T09:12:22;9.30;;;8.55;;
40573;SDS011;26283;49.020;8.644;2022-08-19T09:15:14;9.68;;;8.80;;
40573;SDS011;26283;49.020;8.644;2022-08-19T09:17:41;9.73;;;8.75;;
40573;SDS011;26283;49.020;8.644;2022-08-19T09:22:38;9.02;;;8.23;;
40573;SDS011;26283;49.020;8.644;2022-08-19T09:25:06;11.85;;;8.10;;
40573;SDS011;26283;49.020;8.644;2022-08-19T09:27:35;8.77;;;7.97;;
40573;SDS011;26283;49.020;8.644;2022-08-19T09:30:03;9.45;;;8.65;;
40573;SDS011;26283;49.020;8.644;2022-08-19T09:32:29;9.32;;;8.43;;
40573;SDS011;26283;49.020;8.644;2022-08-19T09:34:55;9.50;;;8.80;;
40573;SDS011;26283;49.020;8.644;2022-08-19T09:37:23;7.97;;;7.30;;
40573;SDS011;26283;49.020;8.644;2022-08-19T09:39:49;8.25;;;7.55;;
40573;SDS011;26283;49.020;8.644;2022-08-19T09:42:15;8.07;;;7.37;;
40573;SDS011;26283;49.020;8.644;2022-08-19T09:44:41;7.55;;;6.87;;
40573;SDS011;26283;49.020;8.644;2022-08-19T09:47:08;7.30;;;6.57;;
40573;SDS011;26283;49.020;8.644;2022-08-19T09:49:35;7.78;;;6.90;;
40573;SDS011;26283;49.020;8.644;2022-08-19T09:52:00;6.65;;;6.07;;
40573;SDS011;26283;49.020;8.644;2022-08-19T09:54:26;8.52;;;7.70;;
40573;SDS011;26283;49.020;8.644;2022-08-19T09:56:52;7.53;;;6.82;;
40573;SDS011;26283;49.020;8.644;2022-08-19T09:59:19;8.30;;;7.65;;
40573;SDS011;26283;49.020;8.644;2022-08-19T10:01:45;8.02;;;7.32;;
40573;SDS011;26283;49.020;8.644;2022-08-19T10:04:10;9.65;;;7.37;;
40573;SDS011;26283;49.020;8.644;2022-08-19T10:06:37;8.30;;;7.50;;
40573;SDS011;26283;49.020;8.644;2022-08-19T10:09:05;7.70;;;6.53;;
40573;SDS011;26283;49.020;8.644;2022-08-19T10:11:33;7.40;;;6.80;;
40573;SDS011;26283;49.020;8.644;2022-08-19T10:14:00;7.78;;;7.07;;
40573;SDS011;26283;49.020;8.644;2022-08-19T10:16:27;7.45;;;6.87;;
40573;SDS011;26283;49.020;8.644;2022-08-19T10:18:53;7.05;;;6.45;;
40573;SDS011;26283;49.020;8.644;2022-08-19T10:21:23;6.70;;;6.20;;
40573;SDS011;26283;49.020;8.644;2022-08-19T10:23:53;6.82;;;6.22;;
40573;SDS011;26283;49.020;8.644;2022-08-19T10:26:25;6.87;;;6.37;;
40573;SDS011;26283;49.020;8.644;2022-08-19T10:31:29;7.15;;;6.47;;
40573;SDS011;26283;49.020;8.644;2022-08-19T10:33:57;7.45;;;6.80;;
40573;SDS011;26283;49.020;8.644;2022-08-19T10:36:24;6.78;;;6.28;;
40573;SDS011;26283;49.020;8.644;2022-08-19T10:38:55;8.02;;;6.72;;
40573;SDS011;26283;49.020;8.644;2022-08-19T10:41:28;6.68;;;6.25;;
40573;SDS011;26283;49.020;8.644;2022-08-19T10:43:56;6.80;;;6.30;;
40573;SDS011;26283;49.020;8.644;2022-08-19T10:46:24;7.32;;;6.37;;
40573;SDS011;26283;49.020;8.644;2022-08-19T10:48:52;7.90;;;7.30;;
40573;SDS011;26283;49.020;8.644;2022-08-19T10:51:19;8.02;;;7.40;;
40573;SDS011;26283;49.020;8.644;2022-08-19T10:54:04;8.25;;;7.65;;
40573;SDS011;26283;49.020;8.644;2022-08-19T10:56:30;7.60;;;7.10;;
40573;SDS011;26283;49.020;8.644;2022-08-19T10:59:15;8.65;;;7.95;;
40573;SDS011;26283;49.020;8.644;2022-08-19T11:01:42;8.82;;;8.07;;
40573;SDS011;26283;49.020;8.644;2022-08-19T11:04:09;8.32;;;7.62;;
40573;SDS011;26283;49.020;8.644;2022-08-19T11:06:39;6.93;;;6.43;;
40573;SDS011;26283;49.020;8.644;2022-08-19T11:09:05;8.25;;;7.50;;
40573;SDS011;26283;49.020;8.644;2022-08-19T11:11:31;8.90;;;8.10;;
40573;SDS011;26283;49.020;8.644;2022-08-19T11:13:57;8.40;;;7.70;;
40573;SDS011;26283;49.020;8.644;2022-08-19T11:16:23;8.52;;;7.82;;
40573;SDS011;26283;49.020;8.644;2022-08-19T11:18:52;7.40;;;6.90;;
40573;SDS011;26283;49.020;8.644;2022-08-19T11:21:22;7.25;;;6.72;;
40573;SDS011;26283;49.020;8.644;2022-08-19T11:23:48;8.43;;;7.62;;
40573;SDS011;26283;49.020;8.644;2022-08-19T11:26:16;8.75;;;8.05;;
40573;SDS011;26283;49.020;8.644;2022-08-19T11:28:43;9.50;;;8.70;;
40573;SDS011;26283;49.020;8.644;2022-08-19T11:31:09;8.00;;;7.40;;
40573;SDS011;26283;49.020;8.644;2022-08-19T11:33:40;7.37;;;6.87;;
40573;SDS011;26283;49.020;8.644;2022-08-19T11:36:05;7.57;;;6.97;;
40573;SDS011;26283;49.020;8.644;2022-08-19T11:38:32;7.97;;;7.18;;
40573;SDS011;26283;49.020;8.644;2022-08-19T11:40:59;8.50;;;7.75;;
40573;SDS011;26283;49.020;8.644;2022-08-19T11:43:27;9.52;;;8.73;;
40573;SDS011;26283;49.020;8.644;2022-08-19T11:45:53;8.95;;;8.35;;
40573;SDS011;26283;49.020;8.644;2022-08-19T11:48:20;8.43;;;7.65;;
40573;SDS011;26283;49.020;8.644;2022-08-19T11:50:49;7.43;;;6.93;;
40573;SDS011;26283;49.020;8.644;2022-08-19T11:53:16;6.53;;;6.00;;
40573;SDS011;26283;49.020;8.644;2022-08-19T11:55:43;6.43;;;5.93;;
40573;SDS011;26283;49.020;8.644;2022-08-19T11:58:10;7.78;;;7.18;;
40573;SDS011;26283;49.020;8.644;2022-08-19T12:00:37;8.75;;;6.78;;
40573;SDS011;26283;49.020;8.644;2022-08-19T12:03:03;8.13;;;7.30;;
40573;SDS011;26283;49.020;8.644;2022-08-19T12:05:29;6.45;;;5.93;;
40573;SDS011;26283;49.020;8.644;2022-08-19T12:07:54;7.05;;;6.45;;
40573;SDS011;26283;49.020;8.644;2022-08-19T12:10:21;7.32;;;6.78;;
40573;SDS011;26283;49.020;8.644;2022-08-19T12:12:47;6.28;;;5.78;;
40573;SDS011;26283;49.020;8.644;2022-08-19T12:15:13;6.30;;;5.75;;
40573;SDS011;26283;49.020;8.644;2022-08-19T12:17:39;5.85;;;5.55;;
40573;SDS011;26283;49.020;8.644;2022-08-19T12:20:07;6.37;;;5.87;;
40573;SDS011;26283;49.020;8.644;2022-08-19T12:22:38;5.85;;;5.55;;
40573;SDS011;26283;49.020;8.644;2022-08-19T12:25:06;5.65;;;5.25;;
40573;SDS011;26283;49.020;8.644;2022-08-19T12:27:33;6.28;;;5.87;;
40573;SDS011;26283;49.020;8.644;2022-08-19T12:30:00;6.53;;;6.00;;
40573;SDS011;26283;49.020;8.644;2022-08-19T12:32:26;6.40;;;6.00;;
40573;SDS011;26283;49.020;8.644;2022-08-19T12:34:52;8.15;;;7.55;;
40573;SDS011;26283;49.020;8.644;2022-08-19T12:37:17;7.00;;;6.60;;
40573;SDS011;26283;49.020;8.644;2022-08-19T12:39:43;6.87;;;6.47;;
40573;SDS011;26283;49.020;8.644;2022-08-19T12:42:10;8.40;;;7.80;;
40573;SDS011;26283;49.020;8.644;2022-08-19T12:44:37;8.05;;;7.45;;
40573;SDS011;26283;49.020;8.644;2022-08-19T12:47:04;8.32;;;7.70;;
40573;SDS011;26283;49.020;8.644;2022-08-19T12:49:31;8.43;;;7.82;;
40573;SDS011;26283;49.020;8.644;2022-08-19T12:51:58;8.40;;;7.75;;
40573;SDS011;26283;49.020;8.644;2022-08-19T12:54:28;9.07;;;8.40;;
40573;SDS011;26283;49.020;8.644;2022-08-19T12:56:55;8.40;;;7.80;;
40573;SDS011;26283;49.020;8.644;2022-08-19T12:59:21;8.57;;;7.85;;
40573;SDS011;26283;49.020;8.644;2022-08-19T13:01:47;7.80;;;7.30;;
40573;SDS011;26283;49.020;8.644;2022-08-19T13:04:12;8.13;;;7.10;;
40573;SDS011;26283;49.020;8.644;2022-08-19T13:06:38;7.43;;;6.95;;
40573;SDS011;26283;49.020;8.644;2022-08-19T13:09:04;7.45;;;7.05;;
40573;SDS011;26283;49.020;8.644;2022-08-19T13:11:30;7.95;;;7.45;;
40573;SDS011;26283;49.020;8.644;2022-08-19T13:13:58;6.87;;;6.47;;
40573;SDS011;26283;49.020;8.644;2022-08-19T13:16:24;7.32;;;6.47;;
40573;SDS011;26283;49.020;8.644;2022-08-19T13:18:52;7.45;;;6.93;;
40573;SDS011;26283;49.020;8.644;2022-08-19T13:21:19;8.55;;;7.93;;
40573;SDS011;26283;49.020;8.644;2022-08-19T13:23:48;6.90;;;6.60;;
40573;SDS011;26283;49.020;8.644;2022-08-19T13:26:14;7.95;;;7.25;;
40573;SDS011;26283;49.020;8.644;2022-08-19T13:28:41;7.37;;;6.78;;
40573;SDS011;26283;49.020;8.644;2022-08-19T13:31:27;7.72;;;7.03;;
40573;SDS011;26283;49.020;8.644;2022-08-19T13:34:13;8.05;;;7.22;;
40573;SDS011;26283;49.020;8.644;2022-08-19T13:36:39;9.30;;;8.60;;
40573;SDS011;26283;49.020;8.644;2022-08-19T13:39:05;8.27;;;7.78;;
40573;SDS011;26283;49.020;8.644;2022-08-19T13:41:33;8.35;;;7.80;;
40573;SDS011;26283;49.020;8.644;2022-08-19T13:43:59;9.73;;;8.93;;
40573;SDS011;26283;49.020;8.644;2022-08-19T13:46:25;8.55;;;8.05;;
40573;SDS011;26283;49.020;8.644;2022-08-19T13:48:52;8.15;;;7.65;;
40573;SDS011;26283;49.020;8.644;2022-08-19T13:51:18;8.25;;;7.70;;
40573;SDS011;26283;49.020;8.644;2022-08-19T13:53:43;8.55;;;7.95;;
40573;SDS011;26283;49.020;8.644;2022-08-19T13:56:11;8.00;;;7.40;;
40573;SDS011;26283;49.020;8.644;2022-08-19T13:58:38;8.18;;;7.62;;
40573;SDS011;26283;49.020;8.644;2022-08-19T14:01:05;8.15;;;7.40;;
40573;SDS011;26283;49.020;8.644;2022-08-19T14:03:32;7.68;;;7.15;;
40573;SDS011;26283;49.020;8.644;2022-08-19T14:05:58;9.07;;;8.23;;
40573;SDS011;26283;49.020;8.644;2022-08-19T14:08:24;9.60;;;8.98;;
40573;SDS011;26283;49.020;8.644;2022-08-19T14:10:50;8.98;;;8.27;;
40573;SDS011;26283;49.020;8.644;2022-08-19T14:13:18;8.90;;;8.20;;
40573;SDS011;26283;49.020;8.644;2022-08-19T14:15:45;8.68;;;8.10;;
40573;SDS011;26283;49.020;8.644;2022-08-19T14:18:10;7.95;;;7.35;;
40573;SDS011;26283;49.020;8.644;2022-08-19T14:20:36;6.97;;;6.47;;
40573;SDS011;26283;49.020;8.644;2022-08-19T14:23:02;7.18;;;6.68;;
40573;SDS011;26283;49.020;8.644;2022-08-19T14:25:30;6.72;;;6.32;;
40573;SDS011;26283;49.020;8.644;2022-08-19T14:27:56;6.95;;;6.55;;
40573;SDS011;26283;49.020;8.644;2022-08-19T14:30:23;6.43;;;6.03;;
40573;SDS011;26283;49.020;8.644;2022-08-19T14:32:59;6.30;;;5.90;;
40573;SDS011;26283;49.020;8.644;2022-08-19T14:35:27;6.22;;;5.68;;
40573;SDS011;26283;49.020;8.644;2022-08-19T14:37:54;6.95;;;6.35;;
40573;SDS011;26283;49.020;8.644;2022-08-19T14:40:23;5.80;;;5.40;;
40573;SDS011;26283;49.020;8.644;2022-08-19T14:42:53;5.37;;;5.07;;
40573;SDS011;26283;49.020;8.644;2022-08-19T14:45:24;5.40;;;5.00;;
40573;SDS011;26283;49.020;8.644;2022-08-19T14:47:51;5.93;;;5.43;;
40573;SDS011;26283;49.020;8.644;2022-08-19T14:50:17;5.72;;;5.32;;